createdAt,value
2022-12-01T00:00:21.550Z,102086.09
2022-12-01T00:02:51.526Z,102090.84
2022-12-01T00:05:25.160Z,102089.91
2022-12-01T00:07:55.119Z,102094.78
2022-12-01T00:10:28.848Z,102089.72
2022-12-01T00:13:00.451Z,102063.66
2022-12-01T00:15:34.589Z,102099.56
2022-12-01T00:18:05.477Z,102081.97
2022-12-01T00:20:40.203Z,102089.81
2022-12-01T00:23:10.037Z,102078.34
2022-12-01T00:25:39.902Z,102087.13
2022-12-01T00:28:09.759Z,102074.66
2022-12-01T00:30:39.624Z,102008.50
2022-12-01T00:33:09.466Z,102078.25
2022-12-01T00:35:41.901Z,102080.47
2022-12-01T00:38:11.747Z,102073.56
2022-12-01T00:40:41.614Z,102082.81
2022-12-01T00:43:12.556Z,102073.28
2022-12-01T00:45:42.429Z,102085.16
2022-12-01T00:48:12.386Z,102028.78
2022-12-01T00:50:45.220Z,102087.00
2022-12-01T00:53:15.102Z,102067.25
2022-12-01T00:55:44.958Z,102088.38
2022-12-01T00:58:14.830Z,102091.81
2022-12-01T01:00:44.733Z,102085.97
2022-12-01T01:03:14.906Z,102087.88
2022-12-01T01:05:47.379Z,102100.06
2022-12-01T01:08:17.916Z,102091.09
2022-12-01T01:10:50.073Z,102023.31
2022-12-01T01:13:20.317Z,102097.25
2022-12-01T01:16:00.633Z,102112.63
2022-12-01T01:18:30.982Z,102099.13
2022-12-01T01:21:05.202Z,102107.94
2022-12-01T01:23:35.219Z,102123.75
2022-12-01T01:26:06.314Z,102101.16
2022-12-01T01:28:36.223Z,102110.03
2022-12-01T01:31:08.598Z,102052.13
2022-12-01T01:33:38.986Z,102115.19
2022-12-01T01:36:12.380Z,102112.28
2022-12-01T01:38:42.247Z,102116.38
2022-12-01T01:41:12.248Z,102062.94
2022-12-01T01:43:45.385Z,102117.06
2022-12-01T01:46:17.637Z,102114.72
2022-12-01T01:48:52.519Z,102135.84
2022-12-01T01:51:29.315Z,102057.81
2022-12-01T01:54:04.207Z,102115.81
2022-12-01T01:56:34.267Z,102115.97
2022-12-01T01:59:04.660Z,102123.78
2022-12-01T02:01:34.858Z,102045.81
2022-12-01T02:04:05.855Z,102119.28
2022-12-01T02:06:38.578Z,102125.44
2022-12-01T02:09:08.410Z,102125.72
2022-12-01T02:12:03.882Z,102120.16
2022-12-01T02:15:00.783Z,102121.53
2022-12-01T02:17:41.725Z,102060.84
2022-12-01T02:20:34.959Z,102119.22
2022-12-01T02:23:47.997Z,102124.66
2022-12-01T02:26:36.770Z,102110.53
2022-12-01T02:29:28.707Z,102117.53
2022-12-01T02:32:10.581Z,102053.50
2022-12-01T02:34:46.833Z,102122.28
2022-12-01T02:37:27.059Z,102060.53
2022-12-01T02:40:04.646Z,102113.94
2022-12-01T02:42:56.595Z,102119.88
2022-12-01T02:45:35.951Z,102104.25
2022-12-01T02:48:14.603Z,102112.06
2022-12-01T02:50:46.662Z,101988.91
2022-12-01T02:53:20.866Z,102110.75
2022-12-01T02:55:54.353Z,102086.63
2022-12-01T02:58:24.485Z,102118.50
2022-12-01T03:01:21.724Z,102108.50
2022-12-01T03:04:05.503Z,102106.06
2022-12-01T03:06:49.999Z,102107.25
2022-12-01T03:09:32.262Z,102116.22
2022-12-01T03:12:13.040Z,102098.97
2022-12-01T03:14:48.381Z,102118.34
2022-12-01T03:17:21.159Z,102089.31
2022-12-01T03:19:58.892Z,102120.38
2022-12-01T03:22:31.717Z,102124.19
2022-12-01T03:25:05.325Z,102120.88
2022-12-01T03:27:41.778Z,102117.75
2022-12-01T03:30:19.279Z,102086.72
2022-12-01T03:32:52.493Z,102106.94
2022-12-01T03:35:32.111Z,102114.44
2022-12-01T03:38:08.537Z,102119.50
2022-12-01T03:40:40.737Z,102115.97
2022-12-01T03:43:14.675Z,102114.59
2022-12-01T03:45:55.467Z,102110.91
2022-12-01T03:48:26.462Z,102054.00
2022-12-01T03:51:07.344Z,102114.13
2022-12-01T03:53:45.468Z,102096.31
2022-12-01T03:56:18.721Z,102095.94
2022-12-01T03:58:52.245Z,102110.03
2022-12-01T04:01:22.489Z,102107.78
2022-12-01T04:03:52.497Z,102091.44
2022-12-01T04:06:24.928Z,102109.16
2022-12-01T04:08:54.778Z,102081.13
2022-12-01T04:11:37.006Z,102110.75
2022-12-01T04:14:06.831Z,102113.66
2022-12-01T04:16:36.736Z,102109.97
2022-12-01T04:19:06.635Z,102129.44
2022-12-01T04:21:39.092Z,102127.31
2022-12-01T04:24:09.696Z,102133.75
2022-12-01T04:26:40.578Z,102138.59
2022-12-01T04:29:12.960Z,102128.66
2022-12-01T04:31:43.020Z,102127.19
2022-12-01T04:34:13.684Z,102142.50
2022-12-01T04:36:46.340Z,102141.59
2022-12-01T04:39:16.426Z,102080.19
2022-12-01T04:41:46.267Z,102136.56
2022-12-01T04:44:16.490Z,102134.91
2022-12-01T04:46:46.423Z,102141.53
2022-12-01T04:49:16.310Z,102052.91
2022-12-01T04:51:48.847Z,102020.78
2022-12-01T04:54:19.225Z,102139.69
2022-12-01T04:56:49.099Z,102139.88
2022-12-01T04:59:18.986Z,102140.44
2022-12-01T05:01:49.467Z,102138.78
2022-12-01T05:04:19.545Z,102131.19
2022-12-01T05:06:52.009Z,102140.19
2022-12-01T05:09:21.870Z,102135.66
2022-12-01T05:11:51.705Z,102134.91
2022-12-01T05:14:21.595Z,102128.69
2022-12-01T05:16:51.510Z,102124.50
2022-12-01T05:19:33.848Z,102144.75
2022-12-01T05:22:06.346Z,102140.72
2022-12-01T05:24:36.173Z,102120.47
2022-12-01T05:27:06.090Z,102147.56
2022-12-01T05:29:35.957Z,102139.56
2022-12-01T05:32:06.021Z,102148.91
2022-12-01T05:34:35.855Z,102149.31
2022-12-01T05:37:08.450Z,102153.16
2022-12-01T05:39:40.272Z,102145.19
2022-12-01T05:42:10.101Z,102102.88
2022-12-01T05:44:39.960Z,102155.50
2022-12-01T05:47:09.819Z,102148.03
2022-12-01T05:49:39.676Z,102144.41
2022-12-01T05:52:12.225Z,102151.03
2022-12-01T05:54:42.069Z,102141.03
2022-12-01T05:57:11.888Z,102149.31
2022-12-01T05:59:41.795Z,102163.38
2022-12-01T06:02:11.670Z,102163.50
2022-12-01T06:04:41.518Z,102160.69
2022-12-01T06:07:13.952Z,102172.38
2022-12-01T06:09:45.280Z,102098.91
2022-12-01T06:12:15.516Z,102162.84
2022-12-01T06:14:45.390Z,102172.09
2022-12-01T06:17:15.227Z,102171.03
2022-12-01T06:19:48.381Z,102174.50
2022-12-01T06:22:21.045Z,102177.25
2022-12-01T06:24:50.883Z,102173.44
2022-12-01T06:27:20.738Z,102165.84
2022-12-01T06:29:51.354Z,102173.06
2022-12-01T06:32:21.484Z,102172.19
2022-12-01T06:34:51.330Z,102122.78
2022-12-01T06:37:23.777Z,102082.84
2022-12-01T06:39:53.642Z,102170.88
2022-12-01T06:42:23.847Z,102114.28
2022-12-01T06:44:53.691Z,102195.22
2022-12-01T06:47:23.604Z,102192.09
2022-12-01T06:49:53.499Z,102171.81
2022-12-01T06:52:26.001Z,102180.75
2022-12-01T06:54:55.847Z,102198.00
2022-12-01T06:57:25.806Z,102213.59
2022-12-01T06:59:56.203Z,102204.56
2022-12-01T07:02:26.640Z,102203.53
2022-12-01T07:04:56.530Z,102191.41
2022-12-01T07:07:29.030Z,102197.13
2022-12-01T07:09:58.970Z,102188.34
2022-12-01T07:12:28.854Z,102186.34
2022-12-01T07:14:58.700Z,102200.88
2022-12-01T07:17:28.538Z,102176.94
2022-12-01T07:19:58.401Z,102207.44
2022-12-01T07:22:32.946Z,102215.59
2022-12-01T07:25:03.048Z,102208.63
2022-12-01T07:27:34.375Z,102182.53
2022-12-01T07:30:09.112Z,102212.41
2022-12-01T07:32:41.100Z,102211.88
2022-12-01T07:35:11.661Z,102227.72
2022-12-01T07:37:44.309Z,102235.81
2022-12-01T07:40:15.290Z,102201.34
2022-12-01T07:42:46.174Z,102221.28
2022-12-01T07:45:16.070Z,102159.28
2022-12-01T07:47:46.201Z,102222.28
2022-12-01T07:50:16.112Z,102159.44
2022-12-01T07:52:52.676Z,102185.94
2022-12-01T07:55:24.686Z,102229.88
2022-12-01T07:57:55.596Z,102242.22
2022-12-01T08:00:25.937Z,102242.75
2022-12-01T08:02:55.927Z,102211.63
2022-12-01T08:05:26.871Z,102231.47
2022-12-01T08:08:05.835Z,102243.41
2022-12-01T08:10:40.555Z,102203.03
2022-12-01T08:13:17.015Z,102240.44
2022-12-01T08:15:47.383Z,102187.88
2022-12-01T08:18:17.258Z,102257.75
2022-12-01T08:20:50.369Z,102196.09
2022-12-01T08:23:22.991Z,102263.84
2022-12-01T08:25:57.633Z,102264.50
2022-12-01T08:28:27.536Z,102256.44
2022-12-01T08:31:01.678Z,102213.19
2022-12-01T08:33:32.004Z,102253.03
2022-12-01T08:36:07.069Z,102247.66
2022-12-01T08:38:39.692Z,102268.72
2022-12-01T08:41:15.119Z,102196.19
2022-12-01T08:43:57.907Z,102267.72
2022-12-01T08:46:29.670Z,102267.81
2022-12-01T08:48:59.999Z,102202.00
2022-12-01T08:51:34.558Z,102210.75
2022-12-01T08:54:14.135Z,102269.09
2022-12-01T08:56:46.494Z,102261.66
2022-12-01T08:59:16.719Z,102244.66
2022-12-01T09:01:55.105Z,102182.38
2022-12-01T09:04:29.521Z,102208.88
2022-12-01T09:07:00.639Z,102274.72
2022-12-01T09:09:38.414Z,102265.91
2022-12-01T09:12:10.054Z,102209.88
2022-12-01T09:14:41.795Z,102274.47
2022-12-01T09:17:12.190Z,102267.75
2022-12-01T09:19:42.040Z,102268.88
2022-12-01T09:22:15.456Z,102281.34
2022-12-01T09:24:49.990Z,102287.31
2022-12-01T09:27:19.856Z,102185.94
2022-12-01T09:29:53.477Z,102286.00
2022-12-01T09:32:24.394Z,102292.59
2022-12-01T09:34:54.318Z,102235.94
2022-12-01T09:37:24.229Z,102289.94
2022-12-01T09:39:56.763Z,102207.31
2022-12-01T09:42:35.223Z,102232.47
2022-12-01T09:45:06.702Z,102285.44
2022-12-01T09:47:38.701Z,102280.25
2022-12-01T09:50:18.908Z,102279.06
2022-12-01T09:52:52.637Z,102221.34
2022-12-01T09:55:26.622Z,102253.34
2022-12-01T09:57:58.115Z,102276.22
2022-12-01T10:00:31.267Z,102275.19
2022-12-01T10:03:14.351Z,102277.63
2022-12-01T10:06:25.267Z,102257.81
2022-12-01T10:08:53.130Z,102290.00
2022-12-01T10:11:36.910Z,102272.34
2022-12-01T10:14:19.298Z,102264.78
2022-12-01T10:16:58.268Z,102253.53
2022-12-01T10:19:35.483Z,102276.22
2022-12-01T10:22:43.590Z,102253.22
2022-12-01T10:25:23.326Z,102260.00
2022-12-01T10:28:14.214Z,102265.00
2022-12-01T10:30:52.677Z,102261.56
2022-12-01T10:33:26.905Z,102258.69
2022-12-01T10:35:57.076Z,102261.66
2022-12-01T10:38:35.025Z,102265.72
2022-12-01T10:41:08.166Z,102256.91
2022-12-01T10:43:45.121Z,102264.66
2022-12-01T10:46:24.264Z,102252.19
2022-12-01T10:48:58.976Z,102258.13
2022-12-01T10:51:32.514Z,102252.72
2022-12-01T10:54:11.513Z,102261.66
2022-12-01T10:56:43.808Z,102231.34
2022-12-01T10:59:26.467Z,102250.59
2022-12-01T11:01:57.351Z,102245.53
2022-12-01T11:04:45.227Z,102257.16
2022-12-01T11:07:21.183Z,102247.09
2022-12-01T11:10:08.508Z,102179.41
2022-12-01T11:12:39.524Z,102249.88
2022-12-01T11:15:23.863Z,102252.22
2022-12-01T11:18:01.262Z,102254.91
2022-12-01T11:20:36.027Z,102231.00
2022-12-01T11:23:25.508Z,102251.16
2022-12-01T11:26:12.528Z,102255.53
2022-12-01T11:28:56.316Z,102242.22
2022-12-01T11:31:42.104Z,102213.56
2022-12-01T11:34:22.236Z,102214.28
2022-12-01T11:36:55.475Z,102251.06
2022-12-01T11:39:31.900Z,102244.81
2022-12-01T11:42:04.965Z,102235.59
2022-12-01T11:44:51.228Z,102236.94
2022-12-01T11:47:30.530Z,102247.94
2022-12-01T11:50:02.712Z,102243.06
2022-12-01T11:52:36.651Z,102229.34
2022-12-01T11:55:24.702Z,102224.53
2022-12-01T11:58:04.553Z,102231.59
2022-12-01T12:00:46.659Z,102234.00
2022-12-01T12:03:31.956Z,102234.53
2022-12-01T12:09:45.060Z,102212.69
2022-12-01T12:12:25.164Z,102237.75
2022-12-01T12:15:07.042Z,102236.53
2022-12-01T12:17:57.897Z,102228.75
2022-12-01T12:20:44.916Z,102224.16
2022-12-01T12:23:40.165Z,102216.16
2022-12-01T12:26:20.128Z,102186.78
2022-12-01T12:29:19.684Z,102199.28
2022-12-01T12:32:00.561Z,102214.09
2022-12-01T12:34:43.012Z,102224.22
2022-12-01T12:37:24.972Z,102199.38
2022-12-01T12:40:17.514Z,102229.22
2022-12-01T12:42:59.010Z,102218.88
2022-12-01T12:45:41.992Z,102217.75
2022-12-01T12:48:30.608Z,102217.34
2022-12-01T12:51:13.243Z,102217.81
2022-12-01T12:53:50.160Z,102208.50
2022-12-01T12:56:25.323Z,102146.91
2022-12-01T12:59:00.991Z,102208.16
2022-12-01T13:01:37.291Z,102212.50
2022-12-01T13:04:12.402Z,102216.63
2022-12-01T13:06:47.598Z,102209.22
2022-12-01T13:09:25.228Z,102212.16
2022-12-01T13:12:02.187Z,102206.69
2022-12-01T13:14:37.170Z,102205.91
2022-12-01T13:17:17.215Z,102201.22
2022-12-01T13:19:49.083Z,102216.06
2022-12-01T13:22:21.886Z,102204.88
2022-12-01T13:24:56.512Z,102210.41
2022-12-01T13:27:36.967Z,102138.06
2022-12-01T13:30:19.207Z,102179.94
2022-12-01T13:32:52.063Z,102198.03
2022-12-01T13:35:27.908Z,102200.19
2022-12-01T13:38:29.756Z,102211.81
2022-12-01T13:41:24.560Z,102166.00
2022-12-01T13:44:03.687Z,102195.03
2022-12-01T13:46:52.362Z,102207.94
2022-12-01T13:49:42.683Z,102191.31
2022-12-01T13:52:29.159Z,102201.97
2022-12-01T13:55:22.357Z,102197.56
2022-12-01T13:58:37.263Z,102211.03
2022-12-01T14:01:37.068Z,102204.88
2022-12-01T14:04:33.517Z,102227.91
2022-12-01T14:07:37.801Z,102220.63
2022-12-01T14:10:27.489Z,102226.66
2022-12-01T14:13:04.616Z,102170.63
2022-12-01T14:15:43.890Z,102229.22
2022-12-01T14:18:33.954Z,102212.44
2022-12-01T14:21:10.507Z,102222.97
2022-12-01T14:24:02.256Z,102222.38
2022-12-01T14:26:34.793Z,102223.75
2022-12-01T14:29:13.600Z,102217.84
2022-12-01T14:32:22.855Z,102237.94
2022-12-01T14:35:06.193Z,102239.16
2022-12-01T14:37:45.332Z,102257.94
2022-12-01T14:40:21.494Z,102238.63
2022-12-01T14:43:09.045Z,102094.69
2022-12-01T14:45:52.552Z,102241.22
2022-12-01T14:48:30.850Z,102227.44
2022-12-01T14:51:14.879Z,102248.97
2022-12-01T14:53:53.527Z,102248.56
2022-12-01T14:56:25.411Z,102240.22
2022-12-01T14:58:59.365Z,102240.22
2022-12-01T15:01:34.134Z,102246.59
2022-12-01T15:04:07.317Z,102240.22
2022-12-01T15:06:40.358Z,102160.91
2022-12-01T15:09:33.950Z,102218.81
2022-12-01T15:12:07.794Z,102171.84
2022-12-01T15:14:49.750Z,102218.16
2022-12-01T15:17:33.026Z,102214.63
2022-12-01T15:20:03.482Z,102218.41
2022-12-01T15:22:36.486Z,102160.16
2022-12-01T15:25:17.664Z,102160.53
2022-12-01T15:27:48.663Z,102127.59
2022-12-01T15:30:20.969Z,102173.03
2022-12-01T15:32:54.822Z,102214.91
2022-12-01T15:35:29.773Z,102197.59
2022-12-01T15:38:01.147Z,102209.13
2022-12-01T15:43:26.943Z,102213.84
2022-12-01T15:46:01.175Z,102210.84
2022-12-01T15:48:34.368Z,102222.78
2022-12-01T15:51:09.271Z,102218.41
2022-12-01T15:53:42.798Z,102184.66
2022-12-01T15:56:17.248Z,102224.19
2022-12-01T15:58:50.039Z,102216.38
2022-12-01T16:01:22.406Z,102228.47
2022-12-01T16:03:56.510Z,102229.88
2022-12-01T16:06:34.408Z,102222.97
2022-12-01T16:09:09.454Z,102165.41
2022-12-01T16:12:08.630Z,102228.34
2022-12-01T16:14:39.819Z,102221.59
2022-12-01T16:17:14.151Z,102209.84
2022-12-01T16:19:45.523Z,102228.50
2022-12-01T16:22:20.595Z,102229.69
2022-12-01T16:24:53.966Z,102223.31
2022-12-01T16:27:28.734Z,102220.91
2022-12-01T16:30:02.071Z,102154.66
2022-12-01T16:32:40.818Z,102228.59
2022-12-01T16:35:26.459Z,102138.97
2022-12-01T16:37:59.908Z,102229.94
2022-12-01T16:40:29.848Z,102223.31
2022-12-01T16:43:02.346Z,102224.19
2022-12-01T16:45:35.551Z,102208.72
2022-12-01T16:48:09.258Z,102228.38
2022-12-01T16:50:41.509Z,102221.25
2022-12-01T16:53:14.091Z,102219.50
2022-12-01T16:55:49.378Z,102181.94
2022-12-01T16:58:23.285Z,102220.03
2022-12-01T17:00:55.226Z,102217.63
2022-12-01T17:03:27.135Z,102222.41
2022-12-01T17:05:58.414Z,102151.66
2022-12-01T17:08:28.480Z,102218.81
2022-12-01T17:10:58.389Z,102206.69
2022-12-01T17:13:30.886Z,102212.69
2022-12-01T17:16:00.766Z,102193.81
2022-12-01T17:18:30.700Z,102222.13
2022-12-01T17:21:02.007Z,102221.94
2022-12-01T17:23:32.883Z,102225.56
2022-12-01T17:26:03.607Z,102235.22
2022-12-01T17:28:36.125Z,102179.91
2022-12-01T17:31:06.695Z,102234.44
2022-12-01T17:33:37.371Z,102237.84
2022-12-01T17:36:09.584Z,102237.41
2022-12-01T17:38:40.735Z,102243.03
2022-12-01T17:41:12.355Z,102236.75
2022-12-01T17:43:45.163Z,102241.69
2022-12-01T17:46:15.961Z,102239.38
2022-12-01T17:48:47.731Z,102172.44
2022-12-01T17:51:18.441Z,102214.88
2022-12-01T17:53:48.332Z,102139.50
2022-12-01T17:56:19.594Z,102218.09
2022-12-01T17:58:52.243Z,102240.50
2022-12-01T18:01:28.600Z,102244.31
2022-12-01T18:04:01.044Z,102249.38
2022-12-01T18:06:31.168Z,102238.06
2022-12-01T18:09:02.910Z,102245.53
2022-12-01T18:11:32.818Z,102240.69
2022-12-01T18:14:05.315Z,102243.66
2022-12-01T18:16:36.122Z,102245.41
2022-12-01T18:19:06.250Z,102245.41
2022-12-01T18:21:36.070Z,102180.09
2022-12-01T18:24:08.983Z,102244.66
2022-12-01T18:26:40.457Z,102249.91
2022-12-01T18:29:16.087Z,102243.97
2022-12-01T18:31:46.100Z,102249.34
2022-12-01T18:34:16.185Z,102246.41
2022-12-01T18:36:47.074Z,102250.78
2022-12-01T18:39:16.944Z,102254.66
2022-12-01T18:41:47.062Z,102256.91
2022-12-01T18:44:19.473Z,102250.84
2022-12-01T18:46:49.470Z,102246.59
2022-12-01T18:49:19.371Z,102252.44
2022-12-01T18:51:49.207Z,102252.13
2022-12-01T18:54:19.630Z,102250.25
2022-12-01T18:56:55.121Z,102250.59
2022-12-01T18:59:28.878Z,102242.69
2022-12-01T19:01:58.830Z,102242.69
2022-12-01T19:04:29.147Z,102242.66
2022-12-01T19:06:58.940Z,102243.97
2022-12-01T19:09:28.828Z,102184.53
2022-12-01T19:12:01.626Z,102245.72
2022-12-01T19:14:34.112Z,102249.25
2022-12-01T19:17:04.043Z,102251.44
2022-12-01T19:19:37.644Z,102250.75
2022-12-01T19:22:07.708Z,102193.19
2022-12-01T19:24:37.763Z,102259.44
2022-12-01T19:27:07.606Z,102198.25
2022-12-01T19:29:40.106Z,102193.47
2022-12-01T19:32:11.089Z,102248.13
2022-12-01T19:34:41.047Z,102248.91
2022-12-01T19:37:11.002Z,102246.06
2022-12-01T19:39:41.183Z,102243.22
2022-12-01T19:42:12.422Z,102198.97
2022-12-01T19:44:46.074Z,102239.19
2022-12-01T19:47:22.246Z,102245.75
2022-12-01T19:49:52.663Z,102240.03
2022-12-01T19:52:22.572Z,102206.56
2022-12-01T19:54:53.086Z,102241.34
2022-12-01T19:57:23.324Z,102158.13
2022-12-01T19:59:55.805Z,102235.44
2022-12-01T20:02:29.025Z,102174.53
2022-12-01T20:04:59.316Z,102244.59
2022-12-01T20:07:29.228Z,102234.50
2022-12-01T20:09:59.207Z,102179.84
2022-12-01T20:12:29.179Z,102230.50
2022-12-01T20:15:01.635Z,102179.84
2022-12-01T20:17:31.524Z,102213.25
2022-12-01T20:20:03.192Z,102224.66
2022-12-01T20:22:34.711Z,102208.09
2022-12-01T20:25:07.404Z,102212.59
2022-12-01T20:27:37.628Z,102214.47
2022-12-01T20:30:12.184Z,102163.84
2022-12-01T20:32:42.104Z,102225.06
2022-12-01T20:35:15.664Z,102156.00
2022-12-01T20:37:45.694Z,102154.06
2022-12-01T20:40:16.245Z,102212.69
2022-12-01T20:42:46.125Z,102230.56
2022-12-01T20:45:18.756Z,102170.66
2022-12-01T20:47:48.634Z,102143.69
2022-12-01T20:50:18.908Z,102221.59
2022-12-01T20:52:48.753Z,102216.75
2022-12-01T20:55:18.718Z,102220.91
2022-12-01T20:57:48.612Z,102223.00
2022-12-01T21:00:22.042Z,102214.78
2022-12-01T21:02:52.093Z,102198.97
2022-12-01T21:05:22.039Z,102224.66
2022-12-01T21:07:52.376Z,102226.19
2022-12-01T21:10:23.761Z,102213.59
2022-12-01T21:13:10.317Z,102221.06
2022-12-01T21:15:52.061Z,102154.00
2022-12-01T21:18:26.726Z,102221.91
2022-12-01T21:21:04.334Z,102225.31
2022-12-01T21:23:34.282Z,102224.56
2022-12-01T21:26:04.554Z,102216.22
2022-12-01T21:28:34.689Z,102214.56
2022-12-01T21:31:14.916Z,102203.34
2022-12-01T21:33:45.510Z,102220.94
2022-12-01T21:36:18.843Z,102220.28
2022-12-01T21:38:51.042Z,102209.53
2022-12-01T21:41:27.709Z,102212.25
2022-12-01T21:44:05.441Z,102212.06
2022-12-01T21:46:41.232Z,102209.97
2022-12-01T21:49:22.634Z,102186.91
2022-12-01T21:51:55.374Z,102188.56
2022-12-01T21:54:25.646Z,102122.19
2022-12-01T21:57:00.596Z,102192.19
2022-12-01T21:59:30.999Z,102205.47
2022-12-01T22:02:17.342Z,102197.56
2022-12-01T22:04:47.488Z,102191.50
2022-12-01T22:07:18.479Z,102188.47
2022-12-01T22:09:48.509Z,102182.53
2022-12-01T22:12:31.219Z,102112.84
2022-12-01T22:15:04.387Z,102179.34
2022-12-01T22:17:40.534Z,102177.03
2022-12-01T22:20:24.023Z,102181.63
2022-12-01T22:22:59.986Z,102152.34
2022-12-01T22:25:30.490Z,102177.25
2022-12-01T22:28:01.576Z,102187.34
2022-12-01T22:30:36.754Z,102186.91
2022-12-01T22:33:19.447Z,102181.88
2022-12-01T22:35:51.225Z,102181.88
2022-12-01T22:38:33.992Z,102137.84
2022-12-01T22:41:08.584Z,102197.56
2022-12-01T22:43:50.778Z,102176.81
2022-12-01T22:46:27.755Z,102174.94
2022-12-01T22:49:02.030Z,102181.09
2022-12-01T22:51:42.443Z,102171.66
2022-12-01T22:54:35.831Z,102181.66
2022-12-01T22:57:14.757Z,102182.75
2022-12-01T22:59:47.846Z,102158.19
2022-12-01T23:02:23.884Z,102159.34
2022-12-01T23:05:00.005Z,102107.47
2022-12-01T23:07:33.720Z,102156.31
2022-12-01T23:10:12.244Z,102173.75
2022-12-01T23:12:42.671Z,102171.34
2022-12-01T23:15:30.184Z,102172.97
2022-12-01T23:18:02.866Z,102157.84
2022-12-01T23:20:37.033Z,102157.38
2022-12-01T23:23:09.866Z,102109.22
2022-12-01T23:25:39.763Z,102166.97
2022-12-01T23:28:11.203Z,102150.69
2022-12-01T23:30:44.553Z,102081.47
2022-12-01T23:33:20.011Z,102147.63
2022-12-01T23:35:56.618Z,102150.50
2022-12-01T23:38:32.198Z,102143.03
2022-12-01T23:41:04.412Z,102084.00
2022-12-01T23:43:37.543Z,102108.78
2022-12-01T23:46:10.683Z,102146.66
2022-12-01T23:48:44.392Z,102141.28
2022-12-01T23:51:21.464Z,102149.16
2022-12-01T23:53:51.843Z,102149.38
2022-12-01T23:56:24.733Z,102138.44
2022-12-01T23:58:55.597Z,102139.75
